Time;durP1;ratioP1;P1;durP2;ratioP2;P2;SDS_P1;SDS_P2;PMS_P1;PMS_P2;Temp;Humidity;BMP_temperature;BMP_pressure;BME280_temperature;BME280_humidity;BME280_pressure;Samples;Min_cycle;Max_cycle;Signal;HPM_P1;HPM_P2
2021/12/14 00:01:13;;;;;;;;;;;10.70;84.10;;;;;;5096888;28;20032;-82
2021/12/14 00:03:43;;;;;;;4.93;3.97;;;10.70;84.10;;;;;;5096669;28;20370;-83
2021/12/14 00:06:11;;;;;;;6.15;4.60;;;10.60;84.20;;;;;;5097423;28;20028;-83
2021/12/14 00:08:48;;;;;;;7.20;4.85;;;10.70;84.20;;;;;;5114957;28;20020;-82
2021/12/14 00:16:48;;;;;;;6.68;4.80;;;10.70;84.30;;;;;;5076849;28;20102;-84
2021/12/14 00:19:14;;;;;;;6.93;5.15;;;10.70;84.40;;;;;;5114727;28;20043;-84
2021/12/14 00:21:47;;;;;;;7.13;5.38;;;10.60;84.40;;;;;;5097374;28;20390;-84
2021/12/14 00:24:15;;;;;;;6.30;4.82;;;10.60;84.40;;;;;;5096222;28;20023;-83
2021/12/14 00:26:48;;;;;;;7.85;5.00;;;10.60;84.40;;;;;;5095982;28;20028;-83
2021/12/14 00:29:22;;;;;;;5.97;5.03;;;10.60;84.40;;;;;;5096416;28;20567;-83
2021/12/14 00:31:51;;;;;;;5.80;4.93;;;10.60;84.40;;;;;;5096907;28;20027;-84
2021/12/14 00:34:23;;;;;;;7.30;5.55;;;10.60;84.50;;;;;;5097047;28;20506;-84
2021/12/14 00:36:52;;;;;;;6.57;5.25;;;10.60;84.50;;;;;;5097836;28;20051;-84
2021/12/14 00:39:17;;;;;;;6.95;5.00;;;10.60;84.60;;;;;;5096939;28;20028;-84
2021/12/14 00:41:44;;;;;;;5.85;5.05;;;10.60;84.60;;;;;;5096658;28;20076;-84
2021/12/14 00:44:11;;;;;;;6.75;5.70;;;10.60;84.60;;;;;;5096975;28;20035;-83
2021/12/14 00:46:38;;;;;;;5.88;5.18;;;10.60;84.70;;;;;;5096586;28;20363;-85
2021/12/14 00:49:06;;;;;;;6.20;5.07;;;10.60;84.60;;;;;;5115382;28;20028;-84
2021/12/14 00:51:32;;;;;;;7.38;5.88;;;10.60;84.60;;;;;;5097311;28;20030;-84
2021/12/14 00:54:01;;;;;;;7.30;5.30;;;10.60;84.70;;;;;;5096889;28;20043;-84
2021/12/14 00:56:27;;;;;;;6.18;5.13;;;10.60;84.80;;;;;;5115331;28;20024;-84
2021/12/14 00:58:52;;;;;;;7.03;5.72;;;10.50;84.80;;;;;;5096752;28;20059;-84
2021/12/14 01:01:23;;;;;;;6.88;5.60;;;10.50;84.90;;;;;;5096672;28;20027;-84
2021/12/14 01:03:53;;;;;;;6.07;5.43;;;10.50;85.00;;;;;;5096947;28;20031;-84
2021/12/14 01:06:21;;;;;;;6.82;6.10;;;10.60;85.10;;;;;;5096734;28;20539;-84
2021/12/14 01:08:49;;;;;;;6.15;5.55;;;10.60;85.00;;;;;;5096549;28;20032;-84
2021/12/14 01:11:41;;;;;;;6.32;5.50;;;10.60;85.00;;;;;;5096944;28;20015;-83
2021/12/14 01:14:22;;;;;;;7.20;5.80;;;10.60;85.00;;;;;;5114790;28;20020;-84
2021/12/14 01:17:06;;;;;;;6.53;5.63;;;10.60;85.00;;;;;;5096630;28;20024;-84
2021/12/14 01:19:35;;;;;;;6.80;5.55;;;10.60;85.10;;;;;;5096431;28;20043;-84
2021/12/14 01:27:14;;;;;;;6.63;5.53;;;10.60;85.10;;;;;;5114531;28;20536;-84
2021/12/14 01:29:42;;;;;;;7.53;6.30;;;10.60;85.10;;;;;;5116140;28;20024;-84
2021/12/14 01:32:09;;;;;;;6.65;5.70;;;10.60;85.10;;;;;;5097548;28;20028;-85
2021/12/14 01:34:36;;;;;;;7.57;6.13;;;10.60;85.20;;;;;;5099556;28;20088;-85
2021/12/14 01:37:07;;;;;;;8.45;6.60;;;10.60;85.20;;;;;;5098923;28;20036;-85
2021/12/14 01:42:21;;;;;;;7.15;5.97;;;10.60;85.30;;;;;;5117302;28;20035;-84
2021/12/14 01:44:50;;;;;;;8.32;6.28;;;10.60;85.30;;;;;;5098981;28;20127;-85
2021/12/14 01:47:30;;;;;;;10.20;6.97;;;10.60;85.30;;;;;;5098747;28;20054;-84
2021/12/14 01:49:56;;;;;;;7.38;6.35;;;10.60;85.40;;;;;;5098581;28;20031;-84
2021/12/14 01:52:29;;;;;;;8.15;6.68;;;10.60;85.40;;;;;;5116719;28;20023;-84
2021/12/14 01:55:00;;;;;;;9.38;6.93;;;10.60;85.40;;;;;;5098087;28;20483;-85
2021/12/14 01:57:30;;;;;;;8.85;6.43;;;10.60;85.40;;;;;;5098242;28;20027;-84
2021/12/14 01:59:58;;;;;;;8.48;6.85;;;10.50;85.40;;;;;;5116526;28;20054;-84
2021/12/14 02:02:42;;;;;;;8.23;6.72;;;10.50;85.40;;;;;;5098133;28;20364;-85
2021/12/14 02:05:29;;;;;;;7.45;6.60;;;10.60;85.50;;;;;;5098956;28;20448;-85
2021/12/14 02:08:00;;;;;;;8.95;6.40;;;10.60;85.50;;;;;;5099260;28;20118;-85
2021/12/14 02:10:35;;;;;;;8.25;7.10;;;10.50;85.50;;;;;;5099294;28;20058;-86
2021/12/14 02:13:05;;;;;;;8.32;6.53;;;10.60;85.60;;;;;;5099167;28;20537;-85
2021/12/14 02:15:38;;;;;;;8.13;6.65;;;10.50;85.50;;;;;;5099507;28;20467;-85
2021/12/14 02:18:09;;;;;;;8.73;7.47;;;10.50;85.50;;;;;;5099612;28;20024;-86
2021/12/14 02:20:38;;;;;;;7.28;6.55;;;10.50;85.50;;;;;;5099342;28;20035;-86
2021/12/14 02:23:07;;;;;;;7.45;6.28;;;10.50;85.60;;;;;;5099435;28;20118;-85
2021/12/14 02:25:33;;;;;;;7.85;6.72;;;10.50;85.70;;;;;;5099309;28;20069;-86
2021/12/14 02:28:07;;;;;;;9.38;6.75;;;10.50;85.70;;;;;;5099574;28;20028;-85
2021/12/14 02:30:37;;;;;;;8.70;7.13;;;10.50;85.70;;;;;;5099974;28;20027;-86
2021/12/14 02:33:12;;;;;;;7.63;6.82;;;10.50;85.70;;;;;;5099646;28;20478;-86
2021/12/14 02:35:38;;;;;;;8.02;6.97;;;10.50;85.80;;;;;;5100111;28;20034;-86
2021/12/14 02:38:10;;;;;;;8.23;6.70;;;10.50;85.70;;;;;;5099328;28;20024;-86
2021/12/14 02:40:54;;;;;;;8.35;6.40;;;10.50;85.80;;;;;;5116967;28;20453;-85
2021/12/14 02:43:42;;;;;;;7.93;6.32;;;10.50;85.70;;;;;;5099286;28;20024;-85
2021/12/14 02:46:37;;;;;;;7.28;6.45;;;10.50;85.70;;;;;;5098420;28;20044;-86
2021/12/14 02:49:06;;;;;;;10.27;7.75;;;10.50;85.70;;;;;;5094358;28;20122;-86
2021/12/14 02:51:34;;;;;;;10.40;8.05;;;10.40;85.60;;;;;;5099373;28;20494;-85
2021/12/14 02:54:08;;;;;;;10.02;8.52;;;10.40;85.60;;;;;;5099047;28;20475;-84
2021/12/14 02:56:36;;;;;;;8.63;7.38;;;10.40;85.70;;;;;;5099094;28;20023;-84
2021/12/14 02:59:24;;;;;;;8.45;7.15;;;10.30;85.90;;;;;;5098895;28;20023;-85
2021/12/14 03:01:52;;;;;;;8.82;7.40;;;10.30;85.90;;;;;;5116923;28;20028;-85
2021/12/14 03:08:13;;;;;;;8.85;7.93;;;10.30;86.00;;;;;;5117504;28;20091;-85
2021/12/14 03:13:22;;;;;;;10.02;7.90;;;10.30;86.10;;;;;;5116755;28;20135;-85
2021/12/14 03:15:55;;;;;;;9.60;7.85;;;10.30;86.10;;;;;;5098325;28;20076;-84
2021/12/14 03:18:30;;;;;;;9.98;7.57;;;10.30;86.00;;;;;;5098094;28;20036;-84
2021/12/14 03:21:09;;;;;;;10.70;7.90;;;10.30;86.10;;;;;;5097685;28;20039;-84
2021/12/14 03:23:45;;;;;;;9.80;8.02;;;10.30;86.10;;;;;;5116406;28;20027;-84
2021/12/14 03:26:14;;;;;;;9.73;8.20;;;10.30;86.10;;;;;;5097056;28;20040;-84
2021/12/14 03:28:41;;;;;;;9.35;8.10;;;10.40;86.10;;;;;;5096677;28;20114;-84
2021/12/14 03:31:18;;;;;;;9.85;8.30;;;10.40;86.10;;;;;;5115150;28;20073;-83
2021/12/14 03:34:00;;;;;;;11.63;8.75;;;10.30;86.10;;;;;;5097202;28;20028;-85
2021/12/14 03:36:45;;;;;;;12.20;8.52;;;10.40;86.20;;;;;;5097348;28;20035;-85
2021/12/14 03:39:25;;;;;;;10.02;8.85;;;10.40;86.10;;;;;;5115565;28;20482;-84
2021/12/14 03:41:56;;;;;;;12.05;8.80;;;10.30;86.00;;;;;;5097005;28;20030;-83
2021/12/14 03:44:30;;;;;;;10.18;8.80;;;10.30;86.10;;;;;;5097565;28;20036;-85
2021/12/14 03:46:58;;;;;;;10.73;8.05;;;10.30;86.20;;;;;;5097107;28;20123;-85
2021/12/14 03:49:30;;;;;;;11.25;8.98;;;10.30;86.20;;;;;;5097320;28;20023;-85
2021/12/14 03:51:56;;;;;;;11.47;9.17;;;10.30;86.10;;;;;;5096846;28;20051;-84
2021/12/14 03:54:22;;;;;;;12.40;9.93;;;10.30;86.20;;;;;;5096576;28;20034;-85
2021/12/14 03:56:49;;;;;;;10.52;8.30;;;10.20;86.20;;;;;;5097198;28;20030;-85
2021/12/14 03:59:15;;;;;;;12.90;9.60;;;10.20;86.20;;;;;;5096336;28;20038;-85
2021/12/14 04:01:46;;;;;;;11.75;9.10;;;10.20;86.20;;;;;;5096906;28;20027;-85
2021/12/14 04:04:20;;;;;;;10.98;8.93;;;10.10;86.20;;;;;;5097018;28;20376;-84
2021/12/14 04:06:49;;;;;;;11.90;9.40;;;10.20;86.40;;;;;;5096412;28;20122;-84
2021/12/14 04:09:17;;;;;;;12.27;9.45;;;10.20;86.40;;;;;;5096389;28;20052;-84
2021/12/14 04:11:43;;;;;;;10.65;8.98;;;10.20;86.40;;;;;;5096212;28;20031;-85
2021/12/14 04:14:10;;;;;;;12.55;9.18;;;10.20;86.40;;;;;;5096407;28;20450;-84
2021/12/14 04:16:39;;;;;;;10.90;8.88;;;10.20;86.40;;;;;;5095968;28;20032;-84
2021/12/14 04:19:10;;;;;;;11.05;8.88;;;10.20;86.30;;;;;;5092414;28;20036;-85
2021/12/14 04:21:39;;;;;;;10.00;8.23;;;10.20;86.30;;;;;;5092756;28;20115;-84
2021/12/14 04:24:08;;;;;;;11.13;8.70;;;10.20;86.30;;;;;;5092895;28;20035;-85
2021/12/14 04:26:34;;;;;;;11.90;8.85;;;10.30;86.40;;;;;;5092654;28;20073;-84
2021/12/14 04:29:01;;;;;;;10.40;8.38;;;10.30;86.30;;;;;;5092670;28;20502;-85
2021/12/14 04:31:27;;;;;;;10.63;8.35;;;10.30;86.30;;;;;;5092918;28;20020;-84
2021/12/14 04:33:54;;;;;;;12.30;8.98;;;10.20;86.30;;;;;;5094255;28;20028;-85
2021/12/14 04:36:26;;;;;;;11.40;9.15;;;10.20;86.30;;;;;;5094598;28;20577;-85
2021/12/14 04:39:05;;;;;;;12.20;8.90;;;10.20;86.30;;;;;;5093770;28;20483;-85
2021/12/14 04:52:51;;;;;;;9.73;7.97;;;10.10;86.40;;;;;;5094793;28;20066;-85
2021/12/14 04:55:17;;;;;;;12.55;9.23;;;10.10;86.40;;;;;;5093435;28;20028;-85
2021/12/14 04:57:46;;;;;;;10.15;8.38;;;10.10;86.40;;;;;;5093381;28;20035;-86
2021/12/14 05:00:27;;;;;;;10.15;8.10;;;10.10;86.50;;;;;;5093540;28;20020;-86
2021/12/14 05:02:56;;;;;;;10.90;7.95;;;10.10;86.60;;;;;;5093056;28;20032;-85
2021/12/14 05:05:33;;;;;;;11.35;8.70;;;10.10;86.60;;;;;;5096995;28;20028;-85
2021/12/14 05:10:37;;;;;;;10.48;8.25;;;10.10;86.60;;;;;;5098803;28;20139;-84
2021/12/14 05:13:03;;;;;;;10.48;7.88;;;10.10;86.60;;;;;;5096923;28;20028;-84
2021/12/14 05:15:29;;;;;;;10.68;8.50;;;10.10;86.50;;;;;;5097368;28;20127;-85
2021/12/14 05:17:55;;;;;;;10.27;8.00;;;10.10;86.60;;;;;;5097175;28;20099;-85
2021/12/14 05:20:20;;;;;;;10.00;8.07;;;10.10;86.50;;;;;;5100891;28;20038;-86
2021/12/14 05:22:47;;;;;;;10.15;7.78;;;10.10;86.60;;;;;;5100321;28;20023;-85
2021/12/14 05:25:27;;;;;;;9.90;7.82;;;10.10;86.60;;;;;;5099936;28;20474;-85
2021/12/14 05:27:59;;;;;;;8.48;7.30;;;10.00;86.50;;;;;;5099712;28;20057;-84
2021/12/14 05:30:29;;;;;;;8.63;7.10;;;10.10;86.60;;;;;;5099545;28;20026;-85
2021/12/14 05:33:07;;;;;;;11.82;8.60;;;10.10;86.50;;;;;;5096811;28;20038;-85
2021/12/14 05:35:37;;;;;;;9.63;7.05;;;10.10;86.50;;;;;;5099882;28;20063;-85
2021/12/14 05:44:17;;;;;;;9.57;7.35;;;10.10;86.50;;;;;;5118395;28;20036;-85
2021/12/14 05:46:50;;;;;;;9.85;7.32;;;10.00;86.40;;;;;;5099406;28;20046;-84
2021/12/14 05:49:21;;;;;;;10.25;7.10;;;10.00;86.30;;;;;;5099616;28;20027;-85
2021/12/14 05:51:50;;;;;;;8.13;6.63;;;10.00;86.40;;;;;;5099761;28;20036;-85
2021/12/14 05:54:27;;;;;;;8.50;6.45;;;10.00;86.40;;;;;;5117452;28;20028;-85
2021/12/14 05:56:57;;;;;;;8.23;6.30;;;10.00;86.40;;;;;;5117169;28;20028;-84
2021/12/14 05:59:27;;;;;;;10.25;7.13;;;10.00;86.40;;;;;;5098613;28;20020;-85
2021/12/14 06:05:19;;;;;;;8.57;6.85;;;10.10;86.40;;;;;;5117044;28;20043;-84
2021/12/14 06:07:45;;;;;;;9.27;6.68;;;10.10;86.40;;;;;;5098617;28;20031;-86
2021/12/14 06:10:14;;;;;;;8.80;7.00;;;10.10;86.30;;;;;;5098082;28;20016;-84
2021/12/14 06:12:40;;;;;;;9.63;6.72;;;10.10;86.40;;;;;;5095368;28;20034;-84
2021/12/14 06:15:13;;;;;;;9.85;7.13;;;10.10;86.30;;;;;;5097615;28;20016;-84
2021/12/14 06:17:40;;;;;;;10.30;7.55;;;10.10;86.30;;;;;;5095813;28;20032;-84
2021/12/14 06:20:17;;;;;;;10.57;7.55;;;10.10;86.20;;;;;;5097783;28;20032;-84
2021/12/14 06:22:48;;;;;;;9.07;6.95;;;10.00;86.20;;;;;;5095643;28;20108;-83
2021/12/14 06:25:21;;;;;;;9.07;7.03;;;10.00;86.20;;;;;;5097864;28;20028;-84
2021/12/14 06:27:47;;;;;;;10.35;7.40;;;10.00;86.30;;;;;;5097914;28;20392;-84
2021/12/14 06:30:20;;;;;;;11.27;7.53;;;10.00;86.30;;;;;;5097929;28;20012;-84
2021/12/14 06:33:08;;;;;;;11.70;7.90;;;10.00;86.20;;;;;;5097758;28;20043;-84
2021/12/14 06:35:37;;;;;;;12.25;7.97;;;10.00;86.30;;;;;;5097751;28;20021;-84
2021/12/14 06:38:28;;;;;;;11.02;7.88;;;10.00;86.40;;;;;;5097555;28;20032;-84
2021/12/14 06:41:14;;;;;;;9.95;7.32;;;9.90;86.20;;;;;;5097624;28;20023;-84
2021/12/14 06:43:52;;;;;;;10.65;8.10;;;10.00;86.20;;;;;;5097583;28;20023;-83
2021/12/14 06:46:27;;;;;;;11.13;8.10;;;10.00;86.20;;;;;;5097183;28;20439;-84
2021/12/14 06:48:58;;;;;;;11.30;8.13;;;9.90;86.20;;;;;;5097663;28;20055;-84
2021/12/14 06:54:46;;;;;;;12.40;8.05;;;9.90;86.30;;;;;;5116249;28;20031;-85
2021/12/14 06:57:11;;;;;;;13.02;8.30;;;9.90;86.30;;;;;;5097619;28;20020;-84
2021/12/14 06:59:37;;;;;;;16.27;9.93;;;9.90;86.20;;;;;;5097499;28;20482;-84
2021/12/14 07:02:07;;;;;;;12.70;9.02;;;9.90;86.10;;;;;;5094038;28;20135;-85
2021/12/14 07:04:36;;;;;;;12.70;9.30;;;9.80;86.30;;;;;;5097390;28;20077;-84
2021/12/14 07:07:06;;;;;;;12.73;9.15;;;9.90;86.40;;;;;;5096925;28;20024;-83
2021/12/14 07:09:37;;;;;;;12.57;8.52;;;9.90;86.30;;;;;;5097251;28;20118;-83
2021/12/14 07:12:07;;;;;;;11.90;8.60;;;9.90;86.40;;;;;;5115005;28;20049;-84
2021/12/14 07:14:36;;;;;;;12.30;8.60;;;9.90;86.40;;;;;;5096959;28;20022;-85
2021/12/14 07:17:18;;;;;;;12.23;9.10;;;9.90;86.40;;;;;;5097619;28;20108;-85
2021/12/14 07:19:44;;;;;;;11.73;8.98;;;9.90;86.30;;;;;;5093425;28;20174;-84
2021/12/14 07:22:40;;;;;;;12.25;9.30;;;9.90;86.40;;;;;;5094878;28;20052;-83
2021/12/14 07:25:13;;;;;;;15.60;9.70;;;9.90;86.40;;;;;;5090197;28;20130;-82
2021/12/14 07:27:45;;;;;;;12.55;9.48;;;9.90;86.40;;;;;;5092839;28;20028;-84
2021/12/14 07:30:25;;;;;;;13.90;10.00;;;9.90;86.40;;;;;;5093167;28;20184;-84
2021/12/14 07:33:12;;;;;;;12.90;8.95;;;9.90;86.40;;;;;;5092991;28;20031;-84
2021/12/14 07:36:12;;;;;;;12.52;9.27;;;9.80;86.40;;;;;;5094456;28;20383;-85
2021/12/14 07:38:39;;;;;;;13.57;9.98;;;9.90;86.40;;;;;;5092991;28;20024;-82
2021/12/14 07:41:07;;;;;;;14.07;10.23;;;9.90;86.40;;;;;;5092906;28;20024;-82
2021/12/14 07:43:43;;;;;;;14.13;10.20;;;9.90;86.40;;;;;;5093260;28;20024;-82
2021/12/14 07:46:47;;;;;;;14.20;10.45;;;9.90;86.40;;;;;;5093080;28;20149;-80
2021/12/14 07:49:33;;;;;;;14.38;9.45;;;9.90;86.40;;;;;;5078541;28;20041;-79
2021/12/14 07:52:16;;;;;;;12.98;9.90;;;9.90;86.40;;;;;;5094937;28;20031;-81
2021/12/14 07:54:44;;;;;;;13.60;10.45;;;9.90;86.40;;;;;;5093540;28;20031;-81
2021/12/14 08:00:35;;;;;;;15.68;10.77;;;9.90;86.40;;;;;;5094363;28;20027;-82
2021/12/14 08:03:02;;;;;;;14.25;10.98;;;9.90;86.40;;;;;;5092191;28;20036;-78
2021/12/14 08:05:36;;;;;;;14.18;10.32;;;10.00;86.50;;;;;;5074426;28;20032;-79
2021/12/14 08:08:16;;;;;;;13.63;10.18;;;10.00;86.50;;;;;;5074521;28;20089;-80
2021/12/14 08:11:08;;;;;;;18.08;11.63;;;9.90;86.50;;;;;;5074412;28;20028;-81
2021/12/14 08:13:41;;;;;;;15.82;10.48;;;10.00;86.50;;;;;;5091347;28;20491;-78
2021/12/14 08:16:07;;;;;;;14.52;10.52;;;10.00;86.50;;;;;;5074282;28;20055;-77
2021/12/14 08:18:36;;;;;;;13.90;10.07;;;10.00;86.50;;;;;;5074050;28;20563;-76
2021/12/14 08:21:19;;;;;;;12.57;10.07;;;10.00;86.50;;;;;;5091147;28;20459;-74
2021/12/14 08:24:04;;;;;;;13.75;10.10;;;10.00;86.50;;;;;;5074670;28;20387;-82
2021/12/14 08:26:42;;;;;;;14.93;10.70;;;10.10;86.50;;;;;;5091035;28;20113;-78
2021/12/14 08:29:26;;;;;;;18.92;12.77;;;10.00;86.40;;;;;;5091926;28;20137;-77
2021/12/14 08:31:54;;;;;;;;;;;10.00;86.40;;;;;;5074927;28;20028;-78
2021/12/14 08:37:53;;;;;;;15.82;11.45;;;10.10;86.50;;;;;;5091285;28;20031;-80
2021/12/14 08:40:25;;;;;;;16.13;12.15;;;10.10;86.40;;;;;;5079831;28;20546;-79
2021/12/14 08:43:02;;;;;;;15.73;11.82;;;10.10;86.30;;;;;;5093325;28;20020;-78
2021/12/14 08:45:45;;;;;;;16.63;11.32;;;10.10;86.30;;;;;;5091526;28;20032;-78
2021/12/14 08:48:29;;;;;;;16.27;12.05;;;10.00;86.30;;;;;;5074775;28;20480;-79
2021/12/14 08:51:22;;;;;;;16.02;11.93;;;10.00;86.30;;;;;;5091918;28;20024;-81
2021/12/14 08:54:03;;;;;;;16.60;12.27;;;10.10;86.40;;;;;;5090487;28;20514;-79
2021/12/14 08:56:34;;;;;;;16.55;11.68;;;10.10;86.40;;;;;;5094552;28;20487;-78
2021/12/14 08:59:00;;;;;;;15.05;11.45;;;10.20;86.30;;;;;;5089974;28;20118;-80
2021/12/14 09:01:29;;;;;;;17.23;12.30;;;10.20;86.30;;;;;;5091931;28;20040;-79
2021/12/14 09:04:01;;;;;;;14.57;11.25;;;10.20;86.30;;;;;;5091266;28;20024;-80
2021/12/14 09:06:31;;;;;;;17.75;12.35;;;10.20;86.30;;;;;;5092572;28;20028;-82
2021/12/14 09:09:02;;;;;;;17.73;13.20;;;10.20;86.20;;;;;;5092693;28;20028;-81
2021/12/14 09:11:33;;;;;;;18.27;13.32;;;10.30;86.20;;;;;;5091974;28;20036;-81
2021/12/14 09:14:00;;;;;;;16.75;12.95;;;10.30;86.10;;;;;;5092674;28;20519;-81
2021/12/14 09:16:30;;;;;;;16.05;12.30;;;10.30;86.10;;;;;;5091850;28;20172;-81
2021/12/14 09:19:14;;;;;;;17.75;13.25;;;10.30;86.00;;;;;;5091816;28;20032;-81
2021/12/14 09:21:44;;;;;;;17.27;13.02;;;10.40;86.00;;;;;;5091821;28;20494;-82
2021/12/14 09:24:14;;;;;;;16.98;13.32;;;10.40;85.90;;;;;;5091726;28;20027;-81
2021/12/14 09:26:42;;;;;;;18.83;14.02;;;10.40;85.80;;;;;;5091606;28;20081;-81
2021/12/14 09:29:12;;;;;;;19.55;15.15;;;10.40;85.90;;;;;;5091616;28;20027;-80
2021/12/14 09:31:40;;;;;;;18.00;13.02;;;10.40;85.90;;;;;;5091403;28;20016;-79
2021/12/14 09:34:09;;;;;;;19.33;14.30;;;10.40;86.00;;;;;;5092596;28;20109;-79
2021/12/14 09:36:35;;;;;;;17.50;13.38;;;10.40;85.90;;;;;;5091509;28;20021;-79
2021/12/14 09:39:17;;;;;;;18.60;13.23;;;10.40;85.80;;;;;;5091861;28;20032;-82
2021/12/14 09:41:46;;;;;;;19.30;14.20;;;10.40;86.40;;;;;;5091175;28;20086;-81
2021/12/14 09:44:16;;;;;;;18.38;13.98;;;10.40;85.70;;;;;;5091146;28;20052;-79
2021/12/14 09:46:43;;;;;;;19.35;14.15;;;10.40;85.70;;;;;;5091257;28;20115;-79
2021/12/14 09:49:11;;;;;;;19.92;14.80;;;10.40;85.70;;;;;;5090981;28;20024;-80
2021/12/14 09:51:50;;;;;;;18.73;14.05;;;10.40;85.70;;;;;;5092804;28;20027;-78
2021/12/14 09:54:21;;;;;;;20.35;15.63;;;10.40;85.80;;;;;;5094871;28;20089;-79
2021/12/14 09:56:58;;;;;;;20.35;14.60;;;10.40;85.70;;;;;;5094396;28;20444;-79
2021/12/14 10:02:48;;;;;;;20.88;14.93;;;10.40;85.70;;;;;;5095911;28;20101;-77
2021/12/14 10:05:22;;;;;;;19.90;14.52;;;10.40;85.80;;;;;;5094254;28;20021;-77
2021/12/14 10:07:48;;;;;;;;;;;10.40;85.70;;;;;;5094738;28;20020;-77
2021/12/14 10:10:18;;;;;;;18.98;13.57;;;10.40;85.80;;;;;;5094290;28;19951;-76
2021/12/14 10:12:51;;;;;;;21.65;14.80;;;10.40;85.80;;;;;;5095701;28;20027;-75
2021/12/14 10:15:38;;;;;;;21.98;14.88;;;10.40;85.80;;;;;;5095424;28;20146;-76
2021/12/14 10:18:14;;;;;;;20.80;14.68;;;10.50;85.70;;;;;;5095268;28;20020;-77
2021/12/14 10:20:51;;;;;;;23.58;16.15;;;10.40;85.70;;;;;;5095231;28;20031;-77
2021/12/14 10:23:18;;;;;;;23.40;16.65;;;10.40;85.70;;;;;;5115588;28;20527;-77
2021/12/14 10:25:46;;;;;;;22.92;15.93;;;10.40;85.70;;;;;;5097408;28;20471;-77
2021/12/14 10:28:12;;;;;;;21.67;15.75;;;10.40;85.80;;;;;;5097116;28;20016;-77
2021/12/14 10:30:54;;;;;;;21.08;15.38;;;10.50;85.80;;;;;;5097191;28;20028;-77
2021/12/14 10:33:22;;;;;;;22.30;15.80;;;10.50;85.80;;;;;;5097061;28;20089;-78
2021/12/14 10:35:54;;;;;;;24.13;16.33;;;10.60;85.80;;;;;;5096918;28;20032;-75
2021/12/14 10:38:31;;;;;;;24.77;16.95;;;10.50;85.70;;;;;;5096907;28;20163;-74
2021/12/14 10:43:57;;;;;;;22.95;15.82;;;10.60;85.50;;;;;;5115273;28;20094;-77
2021/12/14 10:46:32;;;;;;;24.70;16.95;;;10.70;85.60;;;;;;5115055;28;20446;-76
2021/12/14 10:48:58;;;;;;;24.85;16.65;;;10.70;85.60;;;;;;5096792;28;20031;-76
2021/12/14 10:51:35;;;;;;;25.45;16.50;;;10.70;85.50;;;;;;5096871;28;20027;-76
2021/12/14 10:54:03;;;;;;;28.02;16.92;;;10.70;85.50;;;;;;5096713;28;20386;-76
2021/12/14 10:56:35;;;;;;;24.15;17.27;;;10.70;85.50;;;;;;5115117;28;20026;-76
2021/12/14 10:59:04;;;;;;;24.88;17.00;;;10.80;85.60;;;;;;5115106;28;20432;-77
2021/12/14 11:01:33;;;;;;;27.80;17.75;;;10.80;85.60;;;;;;5096503;28;20057;-76
2021/12/14 11:04:07;;;;;;;23.20;16.65;;;10.80;85.60;;;;;;5096411;28;20107;-77
2021/12/14 11:06:35;;;;;;;24.58;17.92;;;10.90;85.60;;;;;;5096813;28;20027;-77
2021/12/14 11:11:59;;;;;;;26.95;18.25;;;10.90;85.50;;;;;;5114567;28;20470;-77
2021/12/14 11:14:29;;;;;;;28.85;19.60;;;10.90;86.10;;;;;;5096267;28;20016;-77
2021/12/14 11:19:54;;;;;;;29.20;19.77;;;10.90;85.40;;;;;;5114546;28;20096;-78
2021/12/14 11:22:27;;;;;;;30.25;19.35;;;10.80;85.50;;;;;;5096067;28;20407;-77
2021/12/14 11:24:57;;;;;;;32.03;19.00;;;10.80;85.60;;;;;;5096071;28;20023;-77
2021/12/14 11:27:28;;;;;;;29.10;19.55;;;10.80;85.70;;;;;;5095937;28;20050;-77
2021/12/14 11:30:34;;;;;;;33.50;21.73;;;10.80;85.60;;;;;;5096361;28;20020;-77
2021/12/14 11:33:12;;;;;;;31.08;20.58;;;10.80;85.60;;;;;;5091869;28;20039;-78
2021/12/14 11:35:53;;;;;;;30.45;20.10;;;10.80;85.70;;;;;;5095995;28;20022;-78
2021/12/14 11:38:27;;;;;;;33.42;20.83;;;10.80;85.80;;;;;;5096044;28;20158;-77
2021/12/14 11:40:55;;;;;;;33.45;22.48;;;10.70;85.70;;;;;;5095991;28;20035;-76
2021/12/14 11:43:25;;;;;;;35.35;22.45;;;10.70;85.80;;;;;;5095898;28;20026;-76
2021/12/14 11:45:51;;;;;;;35.22;23.00;;;10.70;86.00;;;;;;5110889;28;20039;-77
2021/12/14 11:48:33;;;;;;;33.83;22.35;;;10.60;86.10;;;;;;5095811;28;20020;-76
2021/12/14 11:51:01;;;;;;;33.70;21.83;;;10.60;86.30;;;;;;5114135;28;20072;-77
2021/12/14 11:53:27;;;;;;;32.85;21.85;;;10.60;86.30;;;;;;5095707;28;20378;-77
2021/12/14 11:55:59;;;;;;;34.03;21.95;;;10.70;86.50;;;;;;5095678;28;20028;-77
2021/12/14 11:58:36;;;;;;;34.10;22.15;;;10.70;86.50;;;;;;5113852;28;20419;-76
2021/12/14 12:01:18;;;;;;;37.47;23.02;;;10.70;86.50;;;;;;5095609;28;20028;-77
2021/12/14 12:04:06;;;;;;;37.10;23.48;;;10.70;86.60;;;;;;5113807;28;20035;-76
2021/12/14 12:09:35;;;;;;;31.35;21.52;;;10.70;86.60;;;;;;5114106;28;20035;-77
2021/12/14 12:12:03;;;;;;;30.50;21.25;;;10.70;86.60;;;;;;5095456;28;20020;-78
2021/12/14 12:14:59;;;;;;;37.35;23.88;;;10.80;86.60;;;;;;5094728;28;20027;-78
2021/12/14 12:17:27;;;;;;;36.03;23.08;;;10.80;86.60;;;;;;5070858;28;20070;-77
2021/12/14 12:20:00;;;;;;;36.75;23.42;;;10.80;86.60;;;;;;5070676;28;20048;-78
2021/12/14 12:22:32;;;;;;;39.38;23.63;;;10.80;86.70;;;;;;5054067;28;20064;-78
2021/12/14 12:24:59;;;;;;;35.55;22.30;;;10.70;86.90;;;;;;5053964;28;20510;-77
2021/12/14 12:27:33;;;;;;;38.08;24.08;;;10.70;87.00;;;;;;5051145;28;20546;-77
2021/12/14 12:30:41;;;;;;;34.42;21.95;;;10.70;87.20;;;;;;5054016;28;20029;-79
2021/12/14 12:33:30;;;;;;;36.03;23.85;;;10.70;87.30;;;;;;5051532;28;20036;-78
2021/12/14 12:36:04;;;;;;;42.72;25.40;;;10.60;87.40;;;;;;5053888;28;20117;-77
2021/12/14 12:38:35;;;;;;;37.60;23.58;;;10.60;87.60;;;;;;5070628;28;20032;-77
2021/12/14 12:41:24;;;;;;;34.28;22.70;;;10.60;87.70;;;;;;5053764;28;20107;-78
2021/12/14 12:43:52;;;;;;;35.80;22.52;;;10.60;87.80;;;;;;5053675;28;20058;-78
2021/12/14 12:46:26;;;;;;;37.05;22.00;;;10.60;87.80;;;;;;5053686;28;20411;-78
2021/12/14 12:48:56;;;;;;;35.97;23.67;;;10.60;87.80;;;;;;5082202;28;20205;-77
2021/12/14 12:51:47;;;;;;;33.25;22.35;;;10.60;87.90;;;;;;5094913;28;20024;-77
2021/12/14 12:54:18;;;;;;;31.13;20.75;;;10.70;88.00;;;;;;5094938;28;20031;-77
2021/12/14 12:56:51;;;;;;;34.45;21.17;;;10.70;87.90;;;;;;5094899;28;20050;-78
2021/12/14 12:59:56;;;;;;;33.83;21.40;;;10.70;87.90;;;;;;5095006;28;20023;-79
2021/12/14 13:02:24;;;;;;;33.60;21.13;;;10.70;87.90;;;;;;5054177;28;20116;-77
2021/12/14 13:04:55;;;;;;;31.35;20.73;;;10.80;87.90;;;;;;5094915;28;20028;-77
2021/12/14 13:07:40;;;;;;;32.08;21.27;;;10.80;87.90;;;;;;5094720;28;20123;-76
2021/12/14 13:10:14;;;;;;;33.63;21.08;;;10.90;87.90;;;;;;5094814;28;20043;-76
2021/12/14 13:13:21;;;;;;;35.97;21.98;;;10.80;87.90;;;;;;5095025;28;20030;-78
2021/12/14 13:15:50;;;;;;;36.03;22.58;;;10.90;88.00;;;;;;5094920;28;20504;-78
2021/12/14 13:18:18;;;;;;;36.25;23.17;;;10.80;88.00;;;;;;5112815;28;20495;-77
2021/12/14 13:20:46;;;;;;;37.08;22.20;;;10.80;88.20;;;;;;5112987;28;20031;-78
2021/12/14 13:23:13;;;;;;;33.95;22.13;;;10.80;88.30;;;;;;5112678;28;20027;-78
2021/12/14 13:25:40;;;;;;;35.80;23.17;;;10.80;88.50;;;;;;5096319;28;20088;-78
2021/12/14 13:28:06;;;;;;;33.05;21.63;;;10.70;88.50;;;;;;5098398;28;20496;-79
2021/12/14 13:30:32;;;;;;;35.15;22.58;;;10.80;88.70;;;;;;5098124;28;20054;-78
2021/12/14 13:32:58;;;;;;;36.85;22.88;;;10.80;88.70;;;;;;5116331;28;20095;-77
2021/12/14 13:35:28;;;;;;;38.95;24.13;;;10.80;88.80;;;;;;5098443;28;20022;-77
2021/12/14 13:38:06;;;;;;;34.92;22.10;;;10.70;88.90;;;;;;5098178;28;20022;-77
2021/12/14 13:40:45;;;;;;;36.20;21.77;;;10.70;89.60;;;;;;5098024;28;20053;-77
2021/12/14 13:43:11;;;;;;;37.35;23.85;;;10.70;89.10;;;;;;5098061;28;20103;-78
2021/12/14 13:45:58;;;;;;;38.30;23.73;;;10.70;89.20;;;;;;5098032;28;20661;-78
2021/12/14 13:48:37;;;;;;;38.67;23.67;;;10.70;89.40;;;;;;5097971;28;20047;-75
2021/12/14 13:55:07;;;;;;;33.83;21.42;;;10.60;89.60;;;;;;5116433;28;20039;-76
2021/12/14 13:57:34;;;;;;;34.92;22.58;;;10.60;89.80;;;;;;5086948;28;20461;-78
2021/12/14 14:00:01;;;;;;;39.10;24.80;;;10.60;89.90;;;;;;5116384;28;20081;-75
2021/12/14 14:02:27;;;;;;;36.47;22.48;;;10.60;90.00;;;;;;5094625;28;20035;-79
2021/12/14 14:04:53;;;;;;;40.33;23.58;;;10.50;90.00;;;;;;5097647;28;20027;-77
2021/12/14 14:07:21;;;;;;;37.45;23.25;;;10.50;90.10;;;;;;5097710;28;20031;-81
2021/12/14 14:09:49;;;;;;;35.95;22.55;;;10.50;90.10;;;;;;5098180;28;20023;-77
2021/12/14 14:12:19;;;;;;;36.15;22.33;;;10.50;90.10;;;;;;5097909;28;20016;-77
2021/12/14 14:14:45;;;;;;;38.65;23.08;;;10.50;90.20;;;;;;5097695;28;20061;-79
2021/12/14 14:17:22;;;;;;;36.20;22.05;;;10.50;90.20;;;;;;5115958;28;20052;-82